sensor_id;sensor_type;location;lat;lon;timestamp;P1;durP1;ratioP1;P2;durP2;ratioP2
55710;SDS011;41612;51.994;5.880;2022-08-04T00:00:23;2.70;;;1.70;;
55710;SDS011;41612;51.994;5.880;2022-08-04T00:08:45;3.88;;;1.85;;
55710;SDS011;41612;51.994;5.880;2022-08-04T00:11:20;4.95;;;2.03;;
55710;SDS011;41612;51.994;5.880;2022-08-04T00:13:55;5.15;;;1.90;;
55710;SDS011;41612;51.994;5.880;2022-08-04T00:16:27;5.25;;;1.83;;
55710;SDS011;41612;51.994;5.880;2022-08-04T00:19:00;4.88;;;2.10;;
55710;SDS011;41612;51.994;5.880;2022-08-04T00:21:28;2.83;;;1.80;;
55710;SDS011;41612;51.994;5.880;2022-08-04T00:23:58;2.60;;;1.63;;
55710;SDS011;41612;51.994;5.880;2022-08-04T00:26:26;4.65;;;2.38;;
55710;SDS011;41612;51.994;5.880;2022-08-04T00:28:52;2.90;;;2.00;;
55710;SDS011;41612;51.994;5.880;2022-08-04T00:31:19;3.60;;;1.85;;
55710;SDS011;41612;51.994;5.880;2022-08-04T00:33:46;4.35;;;1.77;;
55710;SDS011;41612;51.994;5.880;2022-08-04T00:36:14;2.55;;;1.90;;
55710;SDS011;41612;51.994;5.880;2022-08-04T00:38:42;3.40;;;2.22;;
55710;SDS011;41612;51.994;5.880;2022-08-04T00:41:20;5.35;;;1.73;;
55710;SDS011;41612;51.994;5.880;2022-08-04T00:44:16;4.28;;;1.88;;
55710;SDS011;41612;51.994;5.880;2022-08-04T00:49:34;5.20;;;2.53;;
55710;SDS011;41612;51.994;5.880;2022-08-04T01:00:37;3.35;;;2.17;;
55710;SDS011;41612;51.994;5.880;2022-08-04T01:03:17;3.20;;;2.05;;
55710;SDS011;41612;51.994;5.880;2022-08-04T01:11:25;3.25;;;2.00;;
55710;SDS011;41612;51.994;5.880;2022-08-04T01:16:52;4.15;;;2.28;;
55710;SDS011;41612;51.994;5.880;2022-08-04T01:19:51;3.17;;;2.00;;
55710;SDS011;41612;51.994;5.880;2022-08-04T01:30:12;3.85;;;2.42;;
55710;SDS011;41612;51.994;5.880;2022-08-04T01:32:47;3.95;;;2.40;;
55710;SDS011;41612;51.994;5.880;2022-08-04T01:38:00;5.07;;;2.30;;
55710;SDS011;41612;51.994;5.880;2022-08-04T01:40:31;3.60;;;2.13;;
55710;SDS011;41612;51.994;5.880;2022-08-04T01:42:59;6.70;;;2.08;;
55710;SDS011;41612;51.994;5.880;2022-08-04T01:45:27;3.78;;;2.13;;
55710;SDS011;41612;51.994;5.880;2022-08-04T01:47:54;3.67;;;2.17;;
55710;SDS011;41612;51.994;5.880;2022-08-04T01:50:21;3.90;;;2.30;;
55710;SDS011;41612;51.994;5.880;2022-08-04T01:52:49;3.10;;;1.85;;
55710;SDS011;41612;51.994;5.880;2022-08-04T01:55:17;6.00;;;3.15;;
55710;SDS011;41612;51.994;5.880;2022-08-04T01:57:44;4.07;;;2.17;;
55710;SDS011;41612;51.994;5.880;2022-08-04T02:00:13;4.53;;;2.42;;
55710;SDS011;41612;51.994;5.880;2022-08-04T02:02:41;3.75;;;2.15;;
55710;SDS011;41612;51.994;5.880;2022-08-04T02:05:08;3.75;;;2.00;;
55710;SDS011;41612;51.994;5.880;2022-08-04T02:10:06;3.03;;;2.10;;
55710;SDS011;41612;51.994;5.880;2022-08-04T02:12:49;3.53;;;2.38;;
55710;SDS011;41612;51.994;5.880;2022-08-04T02:15:27;3.53;;;2.10;;
55710;SDS011;41612;51.994;5.880;2022-08-04T02:25:31;4.03;;;2.13;;
55710;SDS011;41612;51.994;5.880;2022-08-04T02:33:17;3.63;;;2.15;;
55710;SDS011;41612;51.994;5.880;2022-08-04T02:35:46;3.58;;;2.10;;
55710;SDS011;41612;51.994;5.880;2022-08-04T02:38:26;5.43;;;2.15;;
55710;SDS011;41612;51.994;5.880;2022-08-04T02:40:57;5.40;;;2.15;;
55710;SDS011;41612;51.994;5.880;2022-08-04T02:43:25;7.05;;;2.60;;
55710;SDS011;41612;51.994;5.880;2022-08-04T02:45:54;3.25;;;2.25;;
55710;SDS011;41612;51.994;5.880;2022-08-04T02:48:23;4.53;;;2.38;;
55710;SDS011;41612;51.994;5.880;2022-08-04T02:50:49;6.82;;;2.78;;
55710;SDS011;41612;51.994;5.880;2022-08-04T02:53:17;4.47;;;2.10;;
55710;SDS011;41612;51.994;5.880;2022-08-04T02:55:46;4.93;;;1.85;;
55710;SDS011;41612;51.994;5.880;2022-08-04T02:58:14;5.43;;;2.15;;
55710;SDS011;41612;51.994;5.880;2022-08-04T03:00:43;4.90;;;2.60;;
55710;SDS011;41612;51.994;5.880;2022-08-04T03:03:15;3.08;;;2.03;;
55710;SDS011;41612;51.994;5.880;2022-08-04T03:05:57;4.57;;;2.13;;
55710;SDS011;41612;51.994;5.880;2022-08-04T03:17:37;4.70;;;2.10;;
55710;SDS011;41612;51.994;5.880;2022-08-04T03:22:58;3.22;;;2.10;;
55710;SDS011;41612;51.994;5.880;2022-08-04T03:34:07;3.83;;;2.35;;
55710;SDS011;41612;51.994;5.880;2022-08-04T03:37:07;4.70;;;2.22;;
55710;SDS011;41612;51.994;5.880;2022-08-04T03:43:20;4.18;;;2.55;;
55710;SDS011;41612;51.994;5.880;2022-08-04T04:14:25;4.20;;;2.08;;
55710;SDS011;41612;51.994;5.880;2022-08-04T04:28:29;5.32;;;1.95;;
55710;SDS011;41612;51.994;5.880;2022-08-04T04:31:55;6.85;;;2.35;;
55710;SDS011;41612;51.994;5.880;2022-08-04T04:46:05;4.80;;;2.00;;
55710;SDS011;41612;51.994;5.880;2022-08-04T04:49:02;2.92;;;1.50;;
55710;SDS011;41612;51.994;5.880;2022-08-04T04:54:33;4.75;;;1.95;;
55710;SDS011;41612;51.994;5.880;2022-08-04T04:59:53;4.65;;;2.05;;
55710;SDS011;41612;51.994;5.880;2022-08-04T05:08:15;3.42;;;1.70;;
55710;SDS011;41612;51.994;5.880;2022-08-04T05:11:15;3.33;;;2.20;;
55710;SDS011;41612;51.994;5.880;2022-08-04T05:13:48;6.30;;;2.00;;
55710;SDS011;41612;51.994;5.880;2022-08-04T05:19:41;3.75;;;2.00;;
55710;SDS011;41612;51.994;5.880;2022-08-04T05:21:46;3.97;;;1.85;;
55710;SDS011;41612;51.994;5.880;2022-08-04T05:24:15;4.18;;;2.30;;
55710;SDS011;41612;51.994;5.880;2022-08-04T05:26:44;4.50;;;1.85;;
55710;SDS011;41612;51.994;5.880;2022-08-04T05:29:26;3.83;;;1.83;;
55710;SDS011;41612;51.994;5.880;2022-08-04T05:31:58;2.80;;;2.00;;
55710;SDS011;41612;51.994;5.880;2022-08-04T05:34:28;4.85;;;2.63;;
55710;SDS011;41612;51.994;5.880;2022-08-04T05:36:58;4.10;;;1.80;;
55710;SDS011;41612;51.994;5.880;2022-08-04T05:39:28;5.57;;;2.28;;
55710;SDS011;41612;51.994;5.880;2022-08-04T05:41:57;3.85;;;1.70;;
55710;SDS011;41612;51.994;5.880;2022-08-04T05:44:24;3.30;;;1.60;;
55710;SDS011;41612;51.994;5.880;2022-08-04T05:46:52;3.67;;;2.15;;
55710;SDS011;41612;51.994;5.880;2022-08-04T05:49:21;4.88;;;1.90;;
55710;SDS011;41612;51.994;5.880;2022-08-04T05:51:48;5.05;;;1.63;;
55710;SDS011;41612;51.994;5.880;2022-08-04T05:54:15;3.63;;;1.55;;
55710;SDS011;41612;51.994;5.880;2022-08-04T05:56:45;3.00;;;1.63;;
55710;SDS011;41612;51.994;5.880;2022-08-04T05:59:11;4.03;;;1.98;;
55710;SDS011;41612;51.994;5.880;2022-08-04T06:01:39;3.58;;;1.70;;
55710;SDS011;41612;51.994;5.880;2022-08-04T06:04:09;2.42;;;1.48;;
55710;SDS011;41612;51.994;5.880;2022-08-04T06:06:39;4.80;;;2.50;;
55710;SDS011;41612;51.994;5.880;2022-08-04T06:09:06;4.50;;;2.85;;
55710;SDS011;41612;51.994;5.880;2022-08-04T06:11:32;5.88;;;2.30;;
55710;SDS011;41612;51.994;5.880;2022-08-04T07:33:48;8.73;;;2.88;;
55710;SDS011;41612;51.994;5.880;2022-08-04T07:36:15;10.95;;;3.22;;
55710;SDS011;41612;51.994;5.880;2022-08-04T07:38:41;7.80;;;2.53;;
55710;SDS011;41612;51.994;5.880;2022-08-04T07:41:07;10.57;;;3.20;;
55710;SDS011;41612;51.994;5.880;2022-08-04T07:43:35;7.45;;;2.70;;
55710;SDS011;41612;51.994;5.880;2022-08-04T07:46:08;6.65;;;2.45;;
55710;SDS011;41612;51.994;5.880;2022-08-04T07:48:34;5.97;;;2.28;;
55710;SDS011;41612;51.994;5.880;2022-08-04T07:51:00;7.63;;;2.78;;
55710;SDS011;41612;51.994;5.880;2022-08-04T07:53:26;10.68;;;2.85;;
55710;SDS011;41612;51.994;5.880;2022-08-04T07:55:53;11.40;;;2.83;;
55710;SDS011;41612;51.994;5.880;2022-08-04T07:58:38;10.52;;;3.22;;
55710;SDS011;41612;51.994;5.880;2022-08-04T08:01:17;4.93;;;2.47;;
55710;SDS011;41612;51.994;5.880;2022-08-04T08:03:43;6.80;;;2.55;;
55710;SDS011;41612;51.994;5.880;2022-08-04T08:06:11;14.20;;;3.17;;
55710;SDS011;41612;51.994;5.880;2022-08-04T08:08:37;9.05;;;2.85;;
55710;SDS011;41612;51.994;5.880;2022-08-04T08:11:04;12.98;;;2.92;;
55710;SDS011;41612;51.994;5.880;2022-08-04T08:13:30;7.93;;;2.72;;
55710;SDS011;41612;51.994;5.880;2022-08-04T08:15:57;6.65;;;2.17;;
55710;SDS011;41612;51.994;5.880;2022-08-04T08:18:23;6.22;;;2.30;;
55710;SDS011;41612;51.994;5.880;2022-08-04T08:20:53;9.55;;;2.72;;
55710;SDS011;41612;51.994;5.880;2022-08-04T08:23:22;7.03;;;3.05;;
55710;SDS011;41612;51.994;5.880;2022-08-04T08:25:49;8.77;;;2.92;;
55710;SDS011;41612;51.994;5.880;2022-08-04T08:28:15;7.82;;;2.70;;
55710;SDS011;41612;51.994;5.880;2022-08-04T08:30:41;12.90;;;2.95;;
55710;SDS011;41612;51.994;5.880;2022-08-04T08:33:08;6.50;;;2.55;;
55710;SDS011;41612;51.994;5.880;2022-08-04T08:35:47;11.32;;;2.85;;
55710;SDS011;41612;51.994;5.880;2022-08-04T08:38:26;5.68;;;2.42;;
55710;SDS011;41612;51.994;5.880;2022-08-04T08:43:48;8.43;;;2.63;;
55710;SDS011;41612;51.994;5.880;2022-08-04T08:51:33;6.65;;;2.47;;
55710;SDS011;41612;51.994;5.880;2022-08-04T08:59:53;6.28;;;2.45;;
55710;SDS011;41612;51.994;5.880;2022-08-04T09:11:15;6.22;;;2.35;;
55710;SDS011;41612;51.994;5.880;2022-08-04T09:13:51;8.25;;;2.85;;
55710;SDS011;41612;51.994;5.880;2022-08-04T09:16:24;5.07;;;2.20;;
55710;SDS011;41612;51.994;5.880;2022-08-04T09:19:09;8.77;;;3.15;;
55710;SDS011;41612;51.994;5.880;2022-08-04T09:24:35;5.38;;;2.40;;
55710;SDS011;41612;51.994;5.880;2022-08-04T09:27:03;8.20;;;2.58;;
55710;SDS011;41612;51.994;5.880;2022-08-04T09:46:36;8.52;;;3.08;;
55710;SDS011;41612;51.994;5.880;2022-08-04T09:49:42;6.47;;;2.72;;
55710;SDS011;41612;51.994;5.880;2022-08-04T09:55:17;5.32;;;2.25;;
55710;SDS011;41612;51.994;5.880;2022-08-04T10:00:41;6.18;;;1.83;;
55710;SDS011;41612;51.994;5.880;2022-08-04T10:03:11;6.13;;;2.53;;
55710;SDS011;41612;51.994;5.880;2022-08-04T10:05:46;6.45;;;2.28;;
55710;SDS011;41612;51.994;5.880;2022-08-04T10:20:21;4.95;;;2.13;;
55710;SDS011;41612;51.994;5.880;2022-08-04T10:29:25;5.15;;;1.80;;
55710;SDS011;41612;51.994;5.880;2022-08-04T10:31:35;4.35;;;1.58;;
55710;SDS011;41612;51.994;5.880;2022-08-04T10:34:15;5.85;;;2.13;;
55710;SDS011;41612;51.994;5.880;2022-08-04T10:39:30;5.13;;;1.83;;
55710;SDS011;41612;51.994;5.880;2022-08-04T10:42:15;4.15;;;1.73;;
55710;SDS011;41612;51.994;5.880;2022-08-04T10:44:54;5.13;;;1.98;;
55710;SDS011;41612;51.994;5.880;2022-08-04T10:47:31;7.10;;;2.45;;
55710;SDS011;41612;51.994;5.880;2022-08-04T10:50:02;5.38;;;1.75;;
55710;SDS011;41612;51.994;5.880;2022-08-04T10:52:30;6.22;;;2.35;;
55710;SDS011;41612;51.994;5.880;2022-08-04T10:57:41;5.00;;;1.95;;
55710;SDS011;41612;51.994;5.880;2022-08-04T11:00:13;4.00;;;1.50;;
55710;SDS011;41612;51.994;5.880;2022-08-04T11:02:45;5.53;;;2.60;;
55710;SDS011;41612;51.994;5.880;2022-08-04T11:08:15;4.45;;;1.65;;
55710;SDS011;41612;51.994;5.880;2022-08-04T11:13:22;7.72;;;3.05;;
55710;SDS011;41612;51.994;5.880;2022-08-04T11:15:50;7.03;;;3.13;;
55710;SDS011;41612;51.994;5.880;2022-08-04T11:18:34;5.78;;;2.13;;
55710;SDS011;41612;51.994;5.880;2022-08-04T11:21:11;2.53;;;1.40;;
55710;SDS011;41612;51.994;5.880;2022-08-04T11:24:02;3.42;;;1.63;;
55710;SDS011;41612;51.994;5.880;2022-08-04T11:26:57;4.28;;;1.80;;
55710;SDS011;41612;51.994;5.880;2022-08-04T11:32:25;5.03;;;1.80;;
55710;SDS011;41612;51.994;5.880;2022-08-04T11:35:08;3.70;;;1.80;;
55710;SDS011;41612;51.994;5.880;2022-08-04T11:37:50;5.13;;;1.73;;
55710;SDS011;41612;51.994;5.880;2022-08-04T11:40:28;4.50;;;1.92;;
55710;SDS011;41612;51.994;5.880;2022-08-04T11:43:01;3.25;;;2.05;;
55710;SDS011;41612;51.994;5.880;2022-08-04T11:45:37;4.07;;;1.98;;
55710;SDS011;41612;51.994;5.880;2022-08-04T11:51:24;5.38;;;1.85;;
55710;SDS011;41612;51.994;5.880;2022-08-04T11:53:52;3.78;;;1.77;;
55710;SDS011;41612;51.994;5.880;2022-08-04T11:56:19;6.75;;;1.80;;
55710;SDS011;41612;51.994;5.880;2022-08-04T11:58:46;5.28;;;2.22;;
55710;SDS011;41612;51.994;5.880;2022-08-04T12:10:08;3.63;;;1.70;;
55710;SDS011;41612;51.994;5.880;2022-08-04T12:12:46;3.67;;;1.70;;
55710;SDS011;41612;51.994;5.880;2022-08-04T12:15:56;5.97;;;2.00;;
55710;SDS011;41612;51.994;5.880;2022-08-04T12:21:33;5.05;;;1.77;;
55710;SDS011;41612;51.994;5.880;2022-08-04T12:24:19;4.65;;;1.70;;
55710;SDS011;41612;51.994;5.880;2022-08-04T12:27:07;6.43;;;2.67;;
55710;SDS011;41612;51.994;5.880;2022-08-04T12:29:44;3.53;;;1.55;;
55710;SDS011;41612;51.994;5.880;2022-08-04T12:35:20;4.75;;;1.98;;
55710;SDS011;41612;51.994;5.880;2022-08-04T12:40:30;2.53;;;1.30;;
55710;SDS011;41612;51.994;5.880;2022-08-04T12:45:52;4.38;;;1.38;;
55710;SDS011;41612;51.994;5.880;2022-08-04T12:48:34;5.10;;;1.70;;
55710;SDS011;41612;51.994;5.880;2022-08-04T12:51:06;4.22;;;1.63;;
55710;SDS011;41612;51.994;5.880;2022-08-04T12:53:38;4.45;;;1.88;;
55710;SDS011;41612;51.994;5.880;2022-08-04T12:56:06;4.47;;;1.67;;
55710;SDS011;41612;51.994;5.880;2022-08-04T12:58:40;3.72;;;1.40;;
55710;SDS011;41612;51.994;5.880;2022-08-04T13:01:25;3.55;;;1.33;;
55710;SDS011;41612;51.994;5.880;2022-08-04T13:04:10;5.90;;;2.25;;
55710;SDS011;41612;51.994;5.880;2022-08-04T13:06:40;3.50;;;1.30;;
55710;SDS011;41612;51.994;5.880;2022-08-04T13:09:14;4.40;;;1.50;;
55710;SDS011;41612;51.994;5.880;2022-08-04T13:11:45;3.50;;;1.45;;
55710;SDS011;41612;51.994;5.880;2022-08-04T13:14:17;3.40;;;1.42;;
55710;SDS011;41612;51.994;5.880;2022-08-04T13:16:47;4.85;;;1.60;;
55710;SDS011;41612;51.994;5.880;2022-08-04T13:19:36;4.88;;;1.77;;
55710;SDS011;41612;51.994;5.880;2022-08-04T13:22:03;3.38;;;1.38;;
55710;SDS011;41612;51.994;5.880;2022-08-04T13:24:30;4.38;;;1.70;;
55710;SDS011;41612;51.994;5.880;2022-08-04T13:26:59;3.70;;;1.13;;
55710;SDS011;41612;51.994;5.880;2022-08-04T13:29:36;4.15;;;1.60;;
55710;SDS011;41612;51.994;5.880;2022-08-04T13:32:19;5.35;;;1.67;;
55710;SDS011;41612;51.994;5.880;2022-08-04T13:34:55;3.95;;;1.20;;
55710;SDS011;41612;51.994;5.880;2022-08-04T13:37:24;3.15;;;1.40;;
55710;SDS011;41612;51.994;5.880;2022-08-04T13:39:54;4.05;;;1.30;;
55710;SDS011;41612;51.994;5.880;2022-08-04T13:42:25;2.55;;;1.00;;
55710;SDS011;41612;51.994;5.880;2022-08-04T13:44:53;1.90;;;0.80;;
55710;SDS011;41612;51.994;5.880;2022-08-04T13:47:26;4.22;;;1.60;;
55710;SDS011;41612;51.994;5.880;2022-08-04T13:52:43;4.35;;;1.70;;
55710;SDS011;41612;51.994;5.880;2022-08-04T13:55:29;6.95;;;1.85;;
55710;SDS011;41612;51.994;5.880;2022-08-04T13:58:09;3.05;;;1.00;;
55710;SDS011;41612;51.994;5.880;2022-08-04T14:00:48;1.88;;;1.02;;
55710;SDS011;41612;51.994;5.880;2022-08-04T14:06:27;8.05;;;2.40;;
55710;SDS011;41612;51.994;5.880;2022-08-04T14:09:00;3.58;;;1.17;;
55710;SDS011;41612;51.994;5.880;2022-08-04T14:11:41;2.72;;;1.33;;
55710;SDS011;41612;51.994;5.880;2022-08-04T14:19:58;4.35;;;1.60;;
55710;SDS011;41612;51.994;5.880;2022-08-04T14:24:57;2.95;;;1.20;;
55710;SDS011;41612;51.994;5.880;2022-08-04T14:27:24;2.53;;;0.90;;
55710;SDS011;41612;51.994;5.880;2022-08-04T14:29:52;2.50;;;1.05;;
55710;SDS011;41612;51.994;5.880;2022-08-04T14:32:18;2.85;;;1.20;;
55710;SDS011;41612;51.994;5.880;2022-08-04T14:34:45;2.53;;;1.00;;
55710;SDS011;41612;51.994;5.880;2022-08-04T14:37:12;2.47;;;1.17;;
55710;SDS011;41612;51.994;5.880;2022-08-04T14:39:45;3.70;;;1.15;;
55710;SDS011;41612;51.994;5.880;2022-08-04T14:42:12;3.55;;;1.48;;
55710;SDS011;41612;51.994;5.880;2022-08-04T14:44:55;2.92;;;1.33;;
55710;SDS011;41612;51.994;5.880;2022-08-04T14:50:19;4.70;;;1.08;;
55710;SDS011;41612;51.994;5.880;2022-08-04T14:53:12;2.55;;;0.93;;
55710;SDS011;41612;51.994;5.880;2022-08-04T14:55:54;2.42;;;1.00;;
55710;SDS011;41612;51.994;5.880;2022-08-04T14:58:22;2.50;;;1.10;;
55710;SDS011;41612;51.994;5.880;2022-08-04T15:00:58;3.33;;;0.98;;
55710;SDS011;41612;51.994;5.880;2022-08-04T15:03:31;2.13;;;0.90;;
55710;SDS011;41612;51.994;5.880;2022-08-04T15:05:58;1.77;;;0.93;;
55710;SDS011;41612;51.994;5.880;2022-08-04T15:08:25;3.03;;;1.00;;
55710;SDS011;41612;51.994;5.880;2022-08-04T15:10:52;3.38;;;1.20;;
55710;SDS011;41612;51.994;5.880;2022-08-04T15:13:23;1.58;;;0.80;;
55710;SDS011;41612;51.994;5.880;2022-08-04T15:15:53;1.98;;;1.00;;
55710;SDS011;41612;51.994;5.880;2022-08-04T15:18:20;2.92;;;1.02;;
55710;SDS011;41612;51.994;5.880;2022-08-04T15:20:45;3.55;;;1.02;;
55710;SDS011;41612;51.994;5.880;2022-08-04T15:23:11;2.45;;;0.90;;
55710;SDS011;41612;51.994;5.880;2022-08-04T15:25:48;3.33;;;1.02;;
55710;SDS011;41612;51.994;5.880;2022-08-04T15:28:18;1.80;;;0.90;;
55710;SDS011;41612;51.994;5.880;2022-08-04T15:30:49;1.98;;;1.05;;
55710;SDS011;41612;51.994;5.880;2022-08-04T15:33:18;1.70;;;0.80;;
55710;SDS011;41612;51.994;5.880;2022-08-04T15:35:48;2.75;;;1.17;;
55710;SDS011;41612;51.994;5.880;2022-08-04T15:38:38;3.08;;;1.02;;
55710;SDS011;41612;51.994;5.880;2022-08-04T15:53:19;3.25;;;1.15;;
55710;SDS011;41612;51.994;5.880;2022-08-04T15:55:45;2.53;;;1.00;;
55710;SDS011;41612;51.994;5.880;2022-08-04T15:58:12;2.75;;;1.30;;
55710;SDS011;41612;51.994;5.880;2022-08-04T16:16:27;2.22;;;0.90;;
55710;SDS011;41612;51.994;5.880;2022-08-04T16:22:28;4.13;;;1.10;;
55710;SDS011;41612;51.994;5.880;2022-08-04T16:24:57;2.33;;;1.10;;
55710;SDS011;41612;51.994;5.880;2022-08-04T16:27:36;3.25;;;1.17;;
55710;SDS011;41612;51.994;5.880;2022-08-04T16:30:08;4.55;;;1.30;;
55710;SDS011;41612;51.994;5.880;2022-08-04T16:32:43;5.53;;;1.40;;
55710;SDS011;41612;51.994;5.880;2022-08-04T16:35:21;10.82;;;1.88;;
55710;SDS011;41612;51.994;5.880;2022-08-04T16:37:51;11.45;;;2.22;;
55710;SDS011;41612;51.994;5.880;2022-08-04T16:40:30;9.23;;;2.00;;
55710;SDS011;41612;51.994;5.880;2022-08-04T16:43:03;12.82;;;1.83;;
55710;SDS011;41612;51.994;5.880;2022-08-04T16:46:04;8.70;;;1.88;;
55710;SDS011;41612;51.994;5.880;2022-08-04T17:26:37;5.47;;;1.48;;
55710;SDS011;41612;51.994;5.880;2022-08-04T17:29:04;5.55;;;1.58;;
55710;SDS011;41612;51.994;5.880;2022-08-04T17:31:31;6.35;;;1.52;;
55710;SDS011;41612;51.994;5.880;2022-08-04T17:34:07;4.45;;;1.05;;
55710;SDS011;41612;51.994;5.880;2022-08-04T17:36:51;3.88;;;1.30;;
55710;SDS011;41612;51.994;5.880;2022-08-04T17:39:20;3.47;;;1.55;;
55710;SDS011;41612;51.994;5.880;2022-08-04T17:41:48;2.13;;;1.20;;
55710;SDS011;41612;51.994;5.880;2022-08-04T17:44:19;6.32;;;1.48;;
55710;SDS011;41612;51.994;5.880;2022-08-04T17:46:45;3.97;;;1.23;;
55710;SDS011;41612;51.994;5.880;2022-08-04T17:49:20;5.10;;;1.67;;
55710;SDS011;41612;51.994;5.880;2022-08-04T17:51:50;4.28;;;1.55;;
55710;SDS011;41612;51.994;5.880;2022-08-04T17:54:18;7.97;;;1.38;;
55710;SDS011;41612;51.994;5.880;2022-08-04T17:56:46;3.15;;;1.25;;
55710;SDS011;41612;51.994;5.880;2022-08-04T18:02:07;5.05;;;1.83;;
55710;SDS011;41612;51.994;5.880;2022-08-04T18:09:35;3.00;;;1.25;;
55710;SDS011;41612;51.994;5.880;2022-08-04T18:12:09;4.43;;;1.42;;
55710;SDS011;41612;51.994;5.880;2022-08-04T18:14:47;4.68;;;1.17;;
55710;SDS011;41612;51.994;5.880;2022-08-04T18:20:38;2.65;;;1.17;;
55710;SDS011;41612;51.994;5.880;2022-08-04T18:23:08;5.47;;;1.48;;
55710;SDS011;41612;51.994;5.880;2022-08-04T18:25:34;3.55;;;1.25;;
55710;SDS011;41612;51.994;5.880;2022-08-04T18:28:02;3.25;;;1.33;;
55710;SDS011;41612;51.994;5.880;2022-08-04T18:30:30;4.05;;;1.25;;
55710;SDS011;41612;51.994;5.880;2022-08-04T18:35:46;3.72;;;1.33;;
55710;SDS011;41612;51.994;5.880;2022-08-04T18:38:17;4.90;;;1.73;;
55710;SDS011;41612;51.994;5.880;2022-08-04T18:40:42;3.30;;;1.00;;
55710;SDS011;41612;51.994;5.880;2022-08-04T18:43:08;5.70;;;1.73;;
55710;SDS011;41612;51.994;5.880;2022-08-04T18:45:34;3.22;;;1.40;;
55710;SDS011;41612;51.994;5.880;2022-08-04T18:48:17;3.88;;;1.20;;
55710;SDS011;41612;51.994;5.880;2022-08-04T18:51:26;3.38;;;1.30;;
55710;SDS011;41612;51.994;5.880;2022-08-04T18:53:55;4.03;;;1.38;;
55710;SDS011;41612;51.994;5.880;2022-08-04T18:56:21;7.78;;;1.40;;
55710;SDS011;41612;51.994;5.880;2022-08-04T18:58:47;1.95;;;1.17;;
55710;SDS011;41612;51.994;5.880;2022-08-04T19:01:15;2.88;;;1.30;;
55710;SDS011;41612;51.994;5.880;2022-08-04T19:06:34;4.18;;;1.33;;
55710;SDS011;41612;51.994;5.880;2022-08-04T19:09:01;3.33;;;1.27;;
55710;SDS011;41612;51.994;5.880;2022-08-04T19:11:28;2.38;;;1.27;;
55710;SDS011;41612;51.994;5.880;2022-08-04T19:14:00;8.00;;;2.10;;
55710;SDS011;41612;51.994;5.880;2022-08-04T19:16:27;2.22;;;1.20;;
55710;SDS011;41612;51.994;5.880;2022-08-04T19:21:50;2.35;;;1.25;;
55710;SDS011;41612;51.994;5.880;2022-08-04T19:24:18;3.45;;;1.45;;
55710;SDS011;41612;51.994;5.880;2022-08-04T19:26:44;3.83;;;1.27;;
55710;SDS011;41612;51.994;5.880;2022-08-04T19:29:10;4.20;;;1.80;;
55710;SDS011;41612;51.994;5.880;2022-08-04T19:31:35;3.10;;;1.15;;
55710;SDS011;41612;51.994;5.880;2022-08-04T19:36:51;5.00;;;1.63;;
55710;SDS011;41612;51.994;5.880;2022-08-04T19:39:17;2.92;;;1.10;;
55710;SDS011;41612;51.994;5.880;2022-08-04T19:41:42;4.53;;;1.67;;
55710;SDS011;41612;51.994;5.880;2022-08-04T19:44:08;2.72;;;1.50;;
55710;SDS011;41612;51.994;5.880;2022-08-04T19:46:34;2.58;;;1.13;;
55710;SDS011;41612;51.994;5.880;2022-08-04T19:51:49;3.97;;;1.60;;
55710;SDS011;41612;51.994;5.880;2022-08-04T19:54:15;3.70;;;2.03;;
55710;SDS011;41612;51.994;5.880;2022-08-04T19:56:44;3.58;;;1.50;;
55710;SDS011;41612;51.994;5.880;2022-08-04T19:59:10;3.20;;;1.60;;
55710;SDS011;41612;51.994;5.880;2022-08-04T20:01:41;5.38;;;1.60;;
55710;SDS011;41612;51.994;5.880;2022-08-04T20:04:19;5.68;;;1.95;;
55710;SDS011;41612;51.994;5.880;2022-08-04T20:06:54;3.08;;;1.27;;
55710;SDS011;41612;51.994;5.880;2022-08-04T20:09:20;3.47;;;1.30;;
55710;SDS011;41612;51.994;5.880;2022-08-04T20:11:46;2.75;;;1.20;;
55710;SDS011;41612;51.994;5.880;2022-08-04T20:14:16;5.97;;;1.38;;
55710;SDS011;41612;51.994;5.880;2022-08-04T20:16:42;2.80;;;1.42;;
55710;SDS011;41612;51.994;5.880;2022-08-04T20:19:09;3.10;;;1.45;;
55710;SDS011;41612;51.994;5.880;2022-08-04T20:22:11;3.20;;;1.70;;
55710;SDS011;41612;51.994;5.880;2022-08-04T20:24:37;4.30;;;1.50;;
55710;SDS011;41612;51.994;5.880;2022-08-04T20:27:03;3.33;;;1.65;;
55710;SDS011;41612;51.994;5.880;2022-08-04T20:29:29;3.33;;;1.38;;
55710;SDS011;41612;51.994;5.880;2022-08-04T20:31:54;3.72;;;1.50;;
55710;SDS011;41612;51.994;5.880;2022-08-04T20:34:20;4.70;;;1.70;;
55710;SDS011;41612;51.994;5.880;2022-08-04T20:36:49;3.58;;;1.10;;
55710;SDS011;41612;51.994;5.880;2022-08-04T20:39:15;2.63;;;1.30;;
55710;SDS011;41612;51.994;5.880;2022-08-04T20:41:41;4.10;;;1.33;;
55710;SDS011;41612;51.994;5.880;2022-08-04T20:44:07;3.88;;;1.70;;
55710;SDS011;41612;51.994;5.880;2022-08-04T20:46:34;3.47;;;1.75;;
55710;SDS011;41612;51.994;5.880;2022-08-04T20:49:00;4.55;;;1.98;;
55710;SDS011;41612;51.994;5.880;2022-08-04T20:51:26;3.35;;;1.60;;
55710;SDS011;41612;51.994;5.880;2022-08-04T20:53:53;3.05;;;1.95;;
55710;SDS011;41612;51.994;5.880;2022-08-04T20:56:21;5.82;;;2.58;;
55710;SDS011;41612;51.994;5.880;2022-08-04T20:58:47;3.95;;;1.73;;
55710;SDS011;41612;51.994;5.880;2022-08-04T21:01:13;3.45;;;1.20;;
55710;SDS011;41612;51.994;5.880;2022-08-04T21:03:41;5.20;;;1.50;;
55710;SDS011;41612;51.994;5.880;2022-08-04T21:06:25;3.15;;;1.50;;
55710;SDS011;41612;51.994;5.880;2022-08-04T21:08:51;4.57;;;1.67;;
55710;SDS011;41612;51.994;5.880;2022-08-04T21:11:17;3.67;;;1.42;;
55710;SDS011;41612;51.994;5.880;2022-08-04T21:13:45;4.05;;;1.50;;
55710;SDS011;41612;51.994;5.880;2022-08-04T21:16:10;3.05;;;1.67;;
55710;SDS011;41612;51.994;5.880;2022-08-04T21:18:36;4.80;;;1.75;;
55710;SDS011;41612;51.994;5.880;2022-08-04T21:21:05;3.80;;;1.55;;
55710;SDS011;41612;51.994;5.880;2022-08-04T21:23:31;4.93;;;1.98;;
55710;SDS011;41612;51.994;5.880;2022-08-04T21:26:00;2.63;;;1.40;;
55710;SDS011;41612;51.994;5.880;2022-08-04T21:28:27;3.22;;;1.60;;
55710;SDS011;41612;51.994;5.880;2022-08-04T21:30:53;1.70;;;1.05;;
55710;SDS011;41612;51.994;5.880;2022-08-04T21:33:20;4.50;;;1.55;;
55710;SDS011;41612;51.994;5.880;2022-08-04T21:35:47;2.67;;;1.20;;
55710;SDS011;41612;51.994;5.880;2022-08-04T21:38:12;2.47;;;1.27;;
55710;SDS011;41612;51.994;5.880;2022-08-04T21:40:38;4.55;;;1.90;;
55710;SDS011;41612;51.994;5.880;2022-08-04T21:43:04;4.75;;;1.70;;
55710;SDS011;41612;51.994;5.880;2022-08-04T21:45:30;2.80;;;1.45;;
55710;SDS011;41612;51.994;5.880;2022-08-04T21:47:55;4.05;;;1.80;;
55710;SDS011;41612;51.994;5.880;2022-08-04T21:50:21;3.28;;;1.33;;
55710;SDS011;41612;51.994;5.880;2022-08-04T21:52:47;3.00;;;1.60;;
55710;SDS011;41612;51.994;5.880;2022-08-04T21:55:13;4.68;;;2.00;;
55710;SDS011;41612;51.994;5.880;2022-08-04T21:57:39;3.33;;;1.30;;
55710;SDS011;41612;51.994;5.880;2022-08-04T22:00:08;3.33;;;1.20;;
55710;SDS011;41612;51.994;5.880;2022-08-04T22:02:34;2.97;;;1.55;;
55710;SDS011;41612;51.994;5.880;2022-08-04T22:05:17;3.95;;;1.35;;
55710;SDS011;41612;51.994;5.880;2022-08-04T22:08:10;3.35;;;1.33;;
55710;SDS011;41612;51.994;5.880;2022-08-04T22:10:41;3.58;;;1.40;;
55710;SDS011;41612;51.994;5.880;2022-08-04T22:13:07;4.78;;;2.05;;
55710;SDS011;41612;51.994;5.880;2022-08-04T22:15:33;3.08;;;1.48;;
55710;SDS011;41612;51.994;5.880;2022-08-04T22:20:50;3.63;;;1.88;;
55710;SDS011;41612;51.994;5.880;2022-08-04T22:23:16;3.83;;;1.58;;
55710;SDS011;41612;51.994;5.880;2022-08-04T22:25:42;3.05;;;1.52;;
55710;SDS011;41612;51.994;5.880;2022-08-04T22:28:07;3.00;;;1.60;;
55710;SDS011;41612;51.994;5.880;2022-08-04T22:30:34;5.35;;;2.13;;
55710;SDS011;41612;51.994;5.880;2022-08-04T22:35:54;2.60;;;1.27;;
55710;SDS011;41612;51.994;5.880;2022-08-04T22:38:20;3.72;;;1.63;;